createdAt,value
2019-01-24T00:02:26.063Z,80.20
2019-01-24T00:04:53.489Z,80.27
2019-01-24T00:07:20.962Z,80.09
2019-01-24T00:09:48.314Z,80.11
2019-01-24T00:12:15.802Z,80.40
2019-01-24T00:14:43.150Z,80.59
2019-01-24T00:17:10.550Z,80.75
2019-01-24T00:19:37.887Z,80.62
2019-01-24T00:22:05.255Z,80.46
2019-01-24T00:24:32.667Z,80.57
2019-01-24T00:27:00.038Z,80.58
2019-01-24T00:29:27.523Z,80.52
2019-01-24T00:31:54.913Z,80.77
2019-01-24T00:34:23.322Z,80.73
2019-01-24T00:36:51.050Z,80.50
2019-01-24T00:39:18.459Z,80.71
2019-01-24T00:41:45.811Z,80.62
2019-01-24T00:44:13.183Z,80.68
2019-01-24T00:46:40.570Z,80.70
2019-01-24T00:49:07.934Z,81.14
2019-01-24T00:51:35.349Z,81.22
2019-01-24T00:54:02.898Z,81.21
2019-01-24T00:56:30.288Z,81.42
2019-01-24T00:58:57.747Z,81.22
2019-01-24T01:01:25.213Z,81.30
2019-01-24T01:03:52.919Z,81.37
2019-01-24T01:06:20.257Z,81.69
2019-01-24T01:08:47.713Z,81.86
2019-01-24T01:11:15.197Z,82.13
2019-01-24T01:13:42.854Z,82.44
2019-01-24T01:16:10.273Z,82.36
2019-01-24T01:18:37.640Z,82.43
2019-01-24T01:21:05.023Z,82.38
2019-01-24T01:23:32.355Z,82.49
2019-01-24T01:26:00.034Z,82.84
2019-01-24T01:28:27.398Z,83.11
2019-01-24T01:30:54.739Z,83.08
2019-01-24T01:33:22.151Z,83.16
2019-01-24T01:35:49.542Z,83.61
2019-01-24T01:38:17.518Z,83.63
2019-01-24T01:40:45.071Z,83.66
2019-01-24T01:43:12.434Z,83.69
2019-01-24T01:45:39.767Z,83.83
2019-01-24T01:48:07.157Z,83.82
2019-01-24T01:50:34.508Z,84.05
2019-01-24T01:53:01.887Z,84.04
2019-01-24T01:55:29.260Z,84.14
2019-01-24T01:57:56.714Z,84.11
2019-01-24T02:00:24.239Z,83.77
2019-01-24T02:02:51.613Z,83.70
2019-01-24T02:05:18.974Z,83.89
2019-01-24T02:07:47.027Z,83.75
2019-01-24T02:10:15.690Z,83.43
2019-01-24T02:12:43.162Z,83.35
2019-01-24T02:15:10.826Z,83.02
2019-01-24T02:17:38.302Z,83.20
2019-01-24T02:20:07.104Z,83.27
2019-01-24T02:22:34.483Z,83.30
2019-01-24T02:25:01.864Z,82.87
2019-01-24T02:27:29.300Z,82.63
2019-01-24T02:29:56.671Z,82.84
2019-01-24T02:32:24.071Z,82.48
2019-01-24T02:34:51.467Z,82.45
2019-01-24T02:37:18.820Z,82.55
2019-01-24T02:39:46.175Z,82.86
2019-01-24T02:42:13.557Z,82.87
2019-01-24T02:44:40.907Z,82.92
2019-01-24T02:47:08.266Z,82.84
2019-01-24T02:49:35.696Z,82.88
2019-01-24T02:52:03.383Z,83.15
2019-01-24T02:54:30.754Z,82.74
2019-01-24T02:56:58.225Z,82.87
2019-01-24T02:59:25.838Z,82.69
2019-01-24T03:01:53.297Z,82.88
2019-01-24T03:04:20.676Z,82.72
2019-01-24T03:06:48.034Z,81.85
2019-01-24T03:09:15.388Z,81.63
2019-01-24T03:11:42.788Z,82.18
2019-01-24T03:14:10.168Z,82.20
2019-01-24T03:16:37.556Z,82.32
2019-01-24T03:19:04.926Z,82.26
2019-01-24T03:21:32.307Z,82.10
2019-01-24T03:23:59.702Z,81.99
2019-01-24T03:26:27.055Z,81.96
2019-01-24T03:28:54.423Z,81.92
2019-01-24T03:31:21.747Z,81.86
2019-01-24T03:33:49.122Z,82.13
2019-01-24T03:36:16.532Z,82.15
2019-01-24T03:38:43.917Z,82.21
2019-01-24T03:41:11.271Z,82.16
2019-01-24T03:43:38.659Z,81.80
2019-01-24T03:46:05.995Z,81.45
2019-01-24T03:48:33.398Z,81.58
2019-01-24T03:51:00.783Z,81.58
2019-01-24T03:53:28.139Z,81.32
2019-01-24T03:55:55.670Z,80.98
2019-01-24T03:58:23.045Z,80.99
2019-01-24T04:00:50.392Z,81.01
2019-01-24T04:03:17.768Z,81.02
2019-01-24T04:05:45.122Z,81.06
2019-01-24T04:08:12.499Z,81.44
2019-01-24T04:10:39.863Z,81.46
2019-01-24T04:13:07.246Z,81.55
2019-01-24T04:15:34.602Z,81.56
2019-01-24T04:18:01.941Z,81.94
2019-01-24T04:20:29.324Z,82.01
2019-01-24T04:22:56.739Z,82.08
2019-01-24T04:25:24.111Z,82.10
2019-01-24T04:27:51.553Z,82.20
2019-01-24T04:30:19.766Z,82.43
2019-01-24T04:32:47.150Z,82.43
2019-01-24T04:35:19.645Z,82.53
2019-01-24T04:37:43.791Z,82.40
2019-01-24T04:40:12.235Z,82.32
2019-01-24T04:42:39.692Z,82.09
2019-01-24T04:45:07.840Z,82.23
2019-01-24T04:47:35.191Z,82.28
2019-01-24T04:50:02.695Z,82.05
2019-01-24T04:52:30.079Z,81.90
2019-01-24T04:54:57.462Z,82.01
2019-01-24T04:57:24.857Z,82.24
2019-01-24T04:59:52.243Z,82.04
2019-01-24T05:02:19.815Z,81.84
2019-01-24T05:04:47.188Z,81.88
2019-01-24T05:07:14.526Z,81.66
2019-01-24T05:09:41.942Z,81.92
2019-01-24T05:12:09.396Z,81.87
2019-01-24T05:14:36.815Z,82.21
2019-01-24T05:17:04.299Z,81.89
2019-01-24T05:19:31.744Z,81.75
2019-01-24T05:21:59.100Z,81.43
2019-01-24T05:24:26.520Z,81.12
2019-01-24T05:26:53.867Z,80.85
2019-01-24T05:29:21.262Z,81.07
2019-01-24T05:31:48.628Z,81.13
2019-01-24T05:34:15.982Z,81.05
2019-01-24T05:36:43.388Z,81.31
2019-01-24T05:39:10.743Z,81.39
2019-01-24T05:41:38.110Z,80.95
2019-01-24T05:44:05.481Z,81.20
2019-01-24T05:46:32.831Z,81.39
2019-01-24T05:49:00.237Z,81.35
2019-01-24T05:51:27.684Z,81.27
2019-01-24T05:53:55.078Z,81.02
2019-01-24T05:56:22.470Z,81.08
2019-01-24T05:58:49.827Z,81.25
2019-01-24T06:01:17.498Z,81.57
2019-01-24T06:03:44.874Z,81.15
2019-01-24T06:06:12.223Z,81.26
2019-01-24T06:08:39.604Z,81.06
2019-01-24T06:11:06.996Z,80.86
2019-01-24T06:13:34.379Z,80.59
2019-01-24T06:16:01.762Z,80.53
2019-01-24T06:18:29.167Z,80.69
2019-01-24T06:20:56.520Z,80.69
2019-01-24T06:23:23.897Z,80.59
2019-01-24T06:25:51.343Z,80.04
2019-01-24T06:28:18.771Z,79.99
2019-01-24T06:30:46.135Z,80.28
2019-01-24T06:33:13.488Z,80.46
2019-01-24T06:35:40.888Z,80.34
2019-01-24T06:38:08.324Z,80.38
2019-01-24T06:40:35.733Z,80.40
2019-01-24T06:43:03.180Z,79.97
2019-01-24T06:45:30.560Z,79.85
2019-01-24T06:47:58.049Z,80.01
2019-01-24T06:50:25.410Z,80.42
2019-01-24T06:52:52.782Z,80.03
2019-01-24T06:55:24.546Z,79.46
2019-01-24T06:57:51.948Z,79.79
2019-01-24T07:00:19.396Z,80.16
2019-01-24T07:02:46.765Z,80.19
2019-01-24T07:05:14.653Z,79.97
2019-01-24T07:07:42.066Z,79.96
2019-01-24T07:10:10.921Z,80.05
2019-01-24T07:12:38.274Z,80.35
2019-01-24T07:15:07.080Z,80.42
2019-01-24T07:17:34.430Z,80.57
2019-01-24T07:20:01.843Z,80.50
2019-01-24T07:22:29.215Z,80.53
2019-01-24T07:24:56.598Z,80.39
2019-01-24T07:27:23.986Z,79.86
2019-01-24T07:29:51.417Z,80.22
2019-01-24T07:32:18.787Z,80.36
2019-01-24T07:34:46.172Z,80.30
2019-01-24T07:37:13.566Z,80.36
2019-01-24T07:39:40.936Z,80.36
2019-01-24T07:42:08.302Z,80.51
2019-01-24T07:44:35.747Z,80.69
2019-01-24T07:47:03.305Z,80.75
2019-01-24T07:49:30.677Z,80.84
2019-01-24T07:51:58.083Z,80.88
2019-01-24T07:54:25.447Z,80.92
2019-01-24T07:56:52.936Z,80.93
2019-01-24T07:59:20.471Z,80.85
2019-01-24T08:01:47.856Z,81.01
2019-01-24T08:04:15.228Z,81.22
2019-01-24T08:06:42.590Z,80.98
2019-01-24T08:09:09.978Z,80.82
2019-01-24T08:11:37.338Z,80.89
2019-01-24T08:14:04.670Z,80.97
2019-01-24T08:16:32.083Z,80.45
2019-01-24T08:18:59.506Z,80.67
2019-01-24T08:21:26.947Z,80.68
2019-01-24T08:23:54.326Z,80.37
2019-01-24T08:26:21.707Z,80.24
2019-01-24T08:28:49.100Z,80.60
2019-01-24T08:31:16.462Z,80.72
2019-01-24T08:33:43.802Z,80.22
2019-01-24T08:36:15.543Z,80.20
2019-01-24T08:38:40.483Z,80.20
2019-01-24T08:41:07.850Z,80.02
2019-01-24T08:43:35.239Z,79.74
2019-01-24T08:46:02.677Z,79.68
2019-01-24T08:48:30.099Z,79.66
2019-01-24T08:50:57.717Z,79.99
2019-01-24T08:53:25.169Z,79.47
2019-01-24T08:55:52.542Z,78.95
2019-01-24T08:58:19.942Z,78.87
2019-01-24T09:00:47.293Z,78.05
2019-01-24T09:03:14.952Z,77.60
2019-01-24T09:05:42.363Z,77.37
2019-01-24T09:08:09.711Z,77.86
2019-01-24T09:10:37.670Z,77.85
2019-01-24T09:13:05.618Z,78.00
2019-01-24T09:15:33.123Z,78.25
2019-01-24T09:18:00.477Z,78.23
2019-01-24T09:20:27.847Z,78.27
2019-01-24T09:22:55.687Z,78.14
2019-01-24T09:25:23.211Z,78.37
2019-01-24T09:27:50.625Z,78.07
2019-01-24T09:30:19.302Z,77.98
2019-01-24T09:32:46.695Z,77.75
2019-01-24T09:35:14.377Z,77.45
2019-01-24T09:37:41.786Z,77.30
2019-01-24T09:40:09.822Z,77.48
2019-01-24T09:42:37.370Z,77.16
2019-01-24T09:45:06.309Z,76.97
2019-01-24T09:47:33.775Z,76.74
2019-01-24T09:50:01.150Z,76.63
2019-01-24T09:52:28.558Z,77.01
2019-01-24T09:54:55.987Z,77.22
2019-01-24T09:57:23.445Z,77.24
2019-01-24T09:59:50.806Z,77.24
2019-01-24T10:02:18.202Z,77.55
2019-01-24T10:04:45.562Z,78.06
2019-01-24T10:07:12.959Z,78.36
2019-01-24T10:09:40.332Z,78.44
2019-01-24T10:12:07.776Z,78.59
2019-01-24T10:14:35.155Z,78.07
2019-01-24T10:17:02.703Z,77.84
2019-01-24T10:19:30.106Z,77.44
2019-01-24T10:21:57.462Z,77.22
2019-01-24T10:24:24.962Z,76.96
2019-01-24T10:26:52.330Z,75.79
2019-01-24T10:29:19.811Z,75.44
2019-01-24T10:31:47.169Z,75.47
2019-01-24T10:34:14.531Z,75.35
2019-01-24T10:36:43.145Z,75.08
2019-01-24T10:39:10.697Z,74.91
2019-01-24T10:41:38.106Z,74.51
2019-01-24T10:44:05.471Z,74.87
2019-01-24T10:46:32.844Z,74.62
2019-01-24T10:49:00.326Z,74.77
2019-01-24T10:51:27.728Z,74.67
2019-01-24T10:53:55.119Z,75.09
2019-01-24T10:56:22.521Z,74.94
2019-01-24T10:58:49.933Z,74.72
2019-01-24T11:01:17.474Z,74.70
2019-01-24T11:03:44.865Z,75.04
2019-01-24T11:06:12.282Z,75.00
2019-01-24T11:08:39.729Z,75.31
2019-01-24T11:11:07.115Z,75.28
2019-01-24T11:13:34.500Z,75.62
2019-01-24T11:16:02.081Z,75.26
2019-01-24T11:18:29.547Z,74.88
2019-01-24T11:20:56.918Z,74.09
2019-01-24T11:23:24.315Z,73.88
2019-01-24T11:25:51.669Z,73.28
2019-01-24T11:28:19.026Z,72.38
2019-01-24T11:30:46.424Z,72.25
2019-01-24T11:33:13.790Z,72.12
2019-01-24T11:35:41.253Z,71.86
2019-01-24T11:38:08.734Z,71.39
2019-01-24T11:40:36.093Z,70.74
2019-01-24T11:43:03.903Z,71.14
2019-01-24T11:45:32.586Z,71.71
2019-01-24T11:47:59.992Z,71.73
2019-01-24T11:50:27.443Z,71.56
2019-01-24T11:52:54.843Z,71.88
2019-01-24T11:55:22.312Z,71.91
2019-01-24T11:57:49.687Z,72.54
2019-01-24T12:00:25.594Z,73.34
2019-01-24T12:02:53.014Z,73.97
2019-01-24T12:05:20.354Z,73.64
2019-01-24T12:07:47.745Z,73.83
2019-01-24T12:10:16.038Z,73.95
2019-01-24T12:12:43.565Z,74.18
2019-01-24T12:15:11.868Z,74.37
2019-01-24T12:17:39.323Z,74.59
2019-01-24T12:20:08.924Z,74.44
2019-01-24T12:22:36.292Z,73.81
2019-01-24T12:25:03.833Z,73.80
2019-01-24T12:27:31.236Z,73.51
2019-01-24T12:29:58.587Z,73.10
2019-01-24T12:32:26.055Z,73.30
2019-01-24T12:34:53.478Z,74.04
2019-01-24T12:37:20.936Z,74.14
2019-01-24T12:39:48.338Z,73.90
2019-01-24T12:42:15.711Z,73.90
2019-01-24T12:44:43.121Z,73.83
2019-01-24T12:47:10.487Z,73.48
2019-01-24T12:49:37.851Z,73.54
2019-01-24T12:52:05.265Z,73.97
2019-01-24T12:54:32.638Z,74.18
2019-01-24T12:56:59.994Z,74.10
2019-01-24T12:59:27.390Z,74.25
2019-01-24T13:01:54.792Z,74.53
2019-01-24T13:04:22.281Z,74.52
2019-01-24T13:06:49.641Z,74.34
2019-01-24T13:09:16.999Z,74.54
2019-01-24T13:11:44.412Z,74.35
2019-01-24T13:14:11.812Z,74.30
2019-01-24T13:16:39.257Z,74.52
2019-01-24T13:19:06.683Z,74.32
2019-01-24T13:21:34.135Z,74.51
2019-01-24T13:24:01.578Z,74.32
2019-01-24T13:26:29.060Z,74.03
2019-01-24T13:28:56.455Z,73.64
2019-01-24T13:31:23.810Z,73.37
2019-01-24T13:33:51.206Z,72.70
2019-01-24T13:36:18.574Z,72.56
2019-01-24T13:38:45.971Z,72.00
2019-01-24T13:41:13.380Z,71.60
2019-01-24T13:43:40.860Z,71.78
2019-01-24T13:46:08.322Z,71.74
2019-01-24T13:48:35.725Z,71.69
2019-01-24T13:51:03.219Z,71.84
2019-01-24T13:53:30.713Z,71.67
2019-01-24T13:55:58.162Z,71.63
2019-01-24T13:58:25.672Z,71.85
2019-01-24T14:00:53.034Z,72.01
2019-01-24T14:03:31.391Z,71.80
2019-01-24T14:05:58.812Z,72.22
2019-01-24T14:08:26.280Z,72.55
2019-01-24T14:10:53.765Z,72.46
2019-01-24T14:13:21.164Z,73.24
2019-01-24T14:15:48.631Z,73.44
2019-01-24T14:18:16.111Z,73.36
2019-01-24T14:20:43.553Z,73.02
2019-01-24T14:23:10.952Z,73.12
2019-01-24T14:25:38.323Z,72.95
2019-01-24T14:28:05.808Z,73.30
2019-01-24T14:30:33.200Z,73.63
2019-01-24T14:33:00.540Z,73.53
2019-01-24T14:35:28.098Z,73.78
2019-01-24T14:37:55.471Z,73.96
2019-01-24T14:40:22.836Z,74.01
2019-01-24T14:42:50.307Z,74.08
2019-01-24T14:45:18.746Z,73.87
2019-01-24T14:47:46.172Z,74.21
2019-01-24T14:50:15.170Z,73.94
2019-01-24T14:52:42.551Z,73.97
2019-01-24T14:55:10.089Z,73.78
2019-01-24T14:57:37.633Z,74.03
2019-01-24T15:00:07.626Z,74.12
2019-01-24T15:02:35.032Z,74.48
2019-01-24T15:05:02.408Z,74.51
2019-01-24T15:07:30.012Z,74.86
2019-01-24T15:09:57.382Z,75.04
2019-01-24T15:12:24.760Z,74.97
2019-01-24T15:14:52.148Z,75.39
2019-01-24T15:17:19.558Z,75.13
2019-01-24T15:19:49.100Z,75.12
2019-01-24T15:22:16.307Z,75.12
2019-01-24T15:24:43.712Z,75.30
2019-01-24T15:27:11.131Z,75.45
2019-01-24T15:29:38.556Z,75.13
2019-01-24T15:32:10.656Z,75.37
2019-01-24T15:34:38.071Z,75.28
2019-01-24T15:37:05.536Z,75.35
2019-01-24T15:39:32.920Z,75.72
2019-01-24T15:42:00.316Z,75.85
2019-01-24T15:44:27.822Z,75.85
2019-01-24T15:46:55.236Z,75.64
2019-01-24T15:49:22.652Z,75.76
2019-01-24T15:51:50.173Z,75.86
2019-01-24T15:54:17.595Z,75.77
2019-01-24T15:56:44.986Z,76.10
2019-01-24T15:59:12.476Z,76.26
2019-01-24T16:01:39.858Z,76.62
2019-01-24T16:04:07.264Z,76.62
2019-01-24T16:06:34.850Z,75.51
2019-01-24T16:09:04.358Z,75.00
2019-01-24T16:11:31.815Z,74.85
2019-01-24T16:13:59.287Z,74.75
2019-01-24T16:16:26.658Z,75.18
2019-01-24T16:18:54.076Z,75.62
2019-01-24T16:21:21.470Z,75.86
2019-01-24T16:23:48.855Z,76.06
2019-01-24T16:26:16.377Z,75.96
2019-01-24T16:28:43.746Z,75.93
2019-01-24T16:31:11.150Z,75.76
2019-01-24T16:33:39.431Z,75.72
2019-01-24T16:36:06.887Z,75.36
2019-01-24T16:38:34.264Z,75.44
2019-01-24T16:41:01.725Z,75.56
2019-01-24T16:43:29.213Z,75.18
2019-01-24T16:45:56.683Z,75.46
2019-01-24T16:48:24.082Z,75.58
2019-01-24T16:50:51.520Z,75.35
2019-01-24T16:53:19.022Z,75.47
2019-01-24T16:55:46.386Z,74.57
2019-01-24T16:58:13.788Z,74.44
2019-01-24T17:00:52.743Z,74.28
2019-01-24T17:03:20.132Z,73.95
2019-01-24T17:05:47.649Z,73.52
2019-01-24T17:08:16.648Z,72.97
2019-01-24T17:10:44.393Z,73.21
2019-01-24T17:13:11.894Z,73.39
2019-01-24T17:15:39.318Z,72.89
2019-01-24T17:18:06.868Z,72.72
2019-01-24T17:20:34.378Z,72.64
2019-01-24T17:23:01.872Z,72.39
2019-01-24T17:25:29.462Z,72.26
2019-01-24T17:27:56.926Z,72.47
2019-01-24T17:30:25.166Z,72.45
2019-01-24T17:32:52.891Z,73.00
2019-01-24T17:35:23.593Z,72.80
2019-01-24T17:37:51.047Z,73.08
2019-01-24T17:40:19.630Z,72.70
2019-01-24T17:42:47.060Z,72.57
2019-01-24T17:45:14.656Z,72.68
2019-01-24T17:47:42.178Z,72.65
2019-01-24T17:50:10.153Z,72.39
2019-01-24T17:52:37.594Z,72.46
2019-01-24T17:55:06.779Z,72.40
2019-01-24T17:57:34.318Z,71.86
2019-01-24T18:00:01.963Z,71.76
2019-01-24T18:02:29.476Z,72.44
2019-01-24T18:04:56.985Z,72.81
2019-01-24T18:07:24.389Z,72.67
2019-01-24T18:09:51.878Z,72.72
2019-01-24T18:12:19.399Z,72.44
2019-01-24T18:14:46.831Z,72.05
2019-01-24T18:17:14.392Z,72.08
2019-01-24T18:19:41.845Z,71.55
2019-01-24T18:22:09.247Z,71.72
2019-01-24T18:24:36.645Z,71.60
2019-01-24T18:27:04.135Z,72.31
2019-01-24T18:29:31.662Z,72.31
2019-01-24T18:31:59.134Z,72.28
2019-01-24T18:34:26.552Z,72.57
2019-01-24T18:36:54.038Z,72.62
2019-01-24T18:39:21.437Z,72.85
2019-01-24T18:41:48.900Z,72.62
2019-01-24T18:44:16.401Z,72.24
2019-01-24T18:46:43.835Z,72.37
2019-01-24T18:49:11.303Z,72.58
2019-01-24T18:51:39.140Z,72.17
2019-01-24T18:54:06.525Z,72.38
2019-01-24T18:56:34.019Z,72.55
2019-01-24T18:59:01.510Z,72.48
2019-01-24T19:01:28.929Z,72.18
2019-01-24T19:03:56.328Z,72.50
2019-01-24T19:06:23.859Z,72.57
2019-01-24T19:08:51.389Z,72.70
2019-01-24T19:11:18.905Z,72.58
2019-01-24T19:13:46.475Z,72.38
2019-01-24T19:16:16.574Z,72.20
2019-01-24T19:18:43.988Z,72.52
2019-01-24T19:21:11.496Z,72.83
2019-01-24T19:23:38.941Z,72.77
2019-01-24T19:26:06.447Z,72.46
2019-01-24T19:28:33.848Z,72.40
2019-01-24T19:31:01.247Z,73.29
2019-01-24T19:33:28.636Z,72.62
2019-01-24T19:36:00.203Z,73.40
2019-01-24T19:38:28.468Z,72.71
2019-01-24T19:40:55.941Z,72.36
2019-01-24T19:43:23.343Z,72.38
2019-01-24T19:45:50.767Z,72.64
2019-01-24T19:48:18.227Z,72.98
2019-01-24T19:50:45.641Z,72.76
2019-01-24T19:53:16.098Z,72.87
2019-01-24T19:55:43.511Z,73.01
2019-01-24T19:58:12.255Z,72.91
2019-01-24T20:00:39.723Z,72.77
2019-01-24T20:03:07.205Z,72.65
2019-01-24T20:05:34.727Z,72.78
2019-01-24T20:08:02.205Z,72.42
2019-01-24T20:10:29.597Z,72.87
2019-01-24T20:12:57.025Z,73.21
2019-01-24T20:15:25.356Z,72.96
2019-01-24T20:17:53.167Z,72.84
2019-01-24T20:20:20.559Z,72.94
2019-01-24T20:22:48.768Z,73.00
2019-01-24T20:25:17.349Z,72.72
2019-01-24T20:27:44.915Z,72.05
2019-01-24T20:30:16.487Z,72.64
2019-01-24T20:32:43.957Z,72.91
2019-01-24T20:35:13.340Z,72.99
2019-01-24T20:37:40.722Z,73.37
2019-01-24T20:40:08.829Z,73.60
2019-01-24T20:42:36.285Z,73.68
2019-01-24T20:45:04.495Z,73.79
2019-01-24T20:47:32.000Z,73.80
2019-01-24T20:49:59.416Z,73.67
2019-01-24T20:52:26.902Z,73.63
2019-01-24T20:54:54.287Z,73.57
2019-01-24T20:57:21.655Z,73.78
2019-01-24T20:59:49.148Z,73.79
2019-01-24T21:02:16.638Z,73.64
2019-01-24T21:04:44.031Z,73.62
2019-01-24T21:07:11.433Z,73.64
2019-01-24T21:09:38.833Z,73.43
2019-01-24T21:12:06.320Z,73.51
2019-01-24T21:14:33.722Z,73.68
2019-01-24T21:17:01.133Z,74.08
2019-01-24T21:19:28.646Z,74.42
2019-01-24T21:21:56.127Z,74.59
2019-01-24T21:24:23.563Z,74.57
2019-01-24T21:26:51.126Z,74.83
2019-01-24T21:29:18.618Z,75.05
2019-01-24T21:31:46.075Z,75.16
2019-01-24T21:34:13.504Z,75.00
2019-01-24T21:36:40.890Z,75.24
2019-01-24T21:39:08.298Z,75.63
2019-01-24T21:41:35.690Z,75.32
2019-01-24T21:44:03.135Z,75.33
2019-01-24T21:46:30.563Z,75.68
2019-01-24T21:48:57.927Z,75.92
2019-01-24T21:51:25.302Z,75.76
2019-01-24T21:53:52.688Z,75.80
2019-01-24T21:56:20.084Z,75.71
2019-01-24T21:58:47.479Z,75.75
2019-01-24T22:01:14.935Z,76.03
2019-01-24T22:03:42.331Z,76.20
2019-01-24T22:06:09.715Z,75.95
2019-01-24T22:08:37.118Z,75.89
2019-01-24T22:11:04.534Z,75.96
2019-01-24T22:13:31.972Z,75.89
2019-01-24T22:15:59.440Z,76.00
2019-01-24T22:18:26.875Z,75.96
2019-01-24T22:20:55.746Z,76.08
2019-01-24T22:23:23.754Z,76.13
2019-01-24T22:25:51.207Z,76.19
2019-01-24T22:28:18.745Z,76.40
2019-01-24T22:30:50.678Z,76.13
2019-01-24T22:33:18.085Z,76.04
2019-01-24T22:35:45.556Z,76.26
2019-01-24T22:38:13.033Z,76.47
2019-01-24T22:40:40.423Z,76.64
2019-01-24T22:43:07.870Z,77.02
2019-01-24T22:45:35.305Z,77.05
2019-01-24T22:48:03.128Z,76.94
2019-01-24T22:50:30.532Z,76.75
2019-01-24T22:52:57.910Z,76.78
2019-01-24T22:55:25.307Z,76.73
2019-01-24T22:57:52.690Z,76.36
2019-01-24T23:00:53.033Z,76.31
2019-01-24T23:03:22.098Z,76.40
2019-01-24T23:05:49.486Z,76.68
2019-01-24T23:08:16.824Z,76.58
2019-01-24T23:10:44.287Z,76.40
2019-01-24T23:13:11.798Z,76.53
2019-01-24T23:15:39.166Z,76.55
2019-01-24T23:18:06.656Z,76.65
2019-01-24T23:20:33.993Z,76.67
2019-01-24T23:23:01.455Z,76.73
2019-01-24T23:25:29.007Z,76.92
2019-01-24T23:27:56.394Z,76.96
2019-01-24T23:30:23.755Z,76.88
2019-01-24T23:32:51.490Z,76.92
2019-01-24T23:35:18.875Z,76.77
2019-01-24T23:37:52.307Z,76.90
2019-01-24T23:40:15.751Z,77.05
2019-01-24T23:42:43.109Z,77.28
2019-01-24T23:45:12.795Z,77.18
2019-01-24T23:47:40.235Z,77.21
2019-01-24T23:50:07.722Z,77.24
2019-01-24T23:52:35.198Z,77.30
2019-01-24T23:55:03.306Z,77.27
2019-01-24T23:57:30.771Z,77.12
2019-01-24T23:59:58.150Z,76.96
